sensor_id;sensor_type;location;lat;lon;timestamp;P1;durP1;ratioP1;P2;durP2;ratioP2
64140;SDS011;50436;50.618;7.932;2023-12-14T00:02:29;0.52;;;0.35;;
64140;SDS011;50436;50.618;7.932;2023-12-14T00:05:15;0.47;;;0.32;;
64140;SDS011;50436;50.618;7.932;2023-12-14T00:08:01;0.30;;;0.30;;
64140;SDS011;50436;50.618;7.932;2023-12-14T00:10:47;0.32;;;0.30;;
64140;SDS011;50436;50.618;7.932;2023-12-14T00:13:33;0.20;;;0.20;;
64140;SDS011;50436;50.618;7.932;2023-12-14T00:16:19;0.30;;;0.30;;
64140;SDS011;50436;50.618;7.932;2023-12-14T00:19:05;0.20;;;0.20;;
64140;SDS011;50436;50.618;7.932;2023-12-14T00:21:51;0.20;;;0.20;;
64140;SDS011;50436;50.618;7.932;2023-12-14T00:24:37;0.43;;;0.30;;
64140;SDS011;50436;50.618;7.932;2023-12-14T00:27:22;0.20;;;0.20;;
64140;SDS011;50436;50.618;7.932;2023-12-14T00:30:08;0.77;;;0.50;;
64140;SDS011;50436;50.618;7.932;2023-12-14T00:32:55;0.40;;;0.30;;
64140;SDS011;50436;50.618;7.932;2023-12-14T00:36:22;0.38;;;0.30;;
64140;SDS011;50436;50.618;7.932;2023-12-14T00:39:07;0.85;;;0.50;;
64140;SDS011;50436;50.618;7.932;2023-12-14T00:41:53;0.55;;;0.40;;
64140;SDS011;50436;50.618;7.932;2023-12-14T00:44:39;1.08;;;0.60;;
64140;SDS011;50436;50.618;7.932;2023-12-14T00:47:25;0.52;;;0.40;;
64140;SDS011;50436;50.618;7.932;2023-12-14T00:50:11;0.68;;;0.45;;
64140;SDS011;50436;50.618;7.932;2023-12-14T00:52:57;1.00;;;0.50;;
64140;SDS011;50436;50.618;7.932;2023-12-14T00:55:43;0.20;;;0.20;;
64140;SDS011;50436;50.618;7.932;2023-12-14T00:58:30;0.77;;;0.40;;
64140;SDS011;50436;50.618;7.932;2023-12-14T01:01:16;1.05;;;0.60;;
64140;SDS011;50436;50.618;7.932;2023-12-14T01:04:02;0.38;;;0.30;;
64140;SDS011;50436;50.618;7.932;2023-12-14T01:06:47;0.95;;;0.60;;
64140;SDS011;50436;50.618;7.932;2023-12-14T01:09:33;0.47;;;0.40;;
64140;SDS011;50436;50.618;7.932;2023-12-14T01:12:19;0.43;;;0.30;;
64140;SDS011;50436;50.618;7.932;2023-12-14T01:15:05;0.73;;;0.47;;
64140;SDS011;50436;50.618;7.932;2023-12-14T01:17:52;0.20;;;0.20;;
64140;SDS011;50436;50.618;7.932;2023-12-14T01:20:37;0.60;;;0.40;;
64140;SDS011;50436;50.618;7.932;2023-12-14T01:23:23;0.35;;;0.30;;
64140;SDS011;50436;50.618;7.932;2023-12-14T01:26:09;0.50;;;0.40;;
64140;SDS011;50436;50.618;7.932;2023-12-14T01:28:57;0.20;;;0.20;;
64140;SDS011;50436;50.618;7.932;2023-12-14T01:31:44;0.22;;;0.20;;
64140;SDS011;50436;50.618;7.932;2023-12-14T01:34:30;0.80;;;0.43;;
64140;SDS011;50436;50.618;7.932;2023-12-14T01:37:16;0.30;;;0.30;;
64140;SDS011;50436;50.618;7.932;2023-12-14T01:40:02;0.68;;;0.40;;
64140;SDS011;50436;50.618;7.932;2023-12-14T01:42:48;0.20;;;0.20;;
64140;SDS011;50436;50.618;7.932;2023-12-14T01:45:34;0.20;;;0.20;;
64140;SDS011;50436;50.618;7.932;2023-12-14T01:48:20;0.20;;;0.20;;
64140;SDS011;50436;50.618;7.932;2023-12-14T01:51:05;0.10;;;0.10;;
64140;SDS011;50436;50.618;7.932;2023-12-14T01:53:51;0.15;;;0.15;;
64140;SDS011;50436;50.618;7.932;2023-12-14T01:56:37;0.10;;;0.10;;
64140;SDS011;50436;50.618;7.932;2023-12-14T01:59:24;0.20;;;0.20;;
64140;SDS011;50436;50.618;7.932;2023-12-14T02:02:13;0.10;;;0.10;;
64140;SDS011;50436;50.618;7.932;2023-12-14T02:04:58;0.10;;;0.10;;
64140;SDS011;50436;50.618;7.932;2023-12-14T02:07:44;0.10;;;0.10;;
64140;SDS011;50436;50.618;7.932;2023-12-14T02:10:30;0.20;;;0.20;;
64140;SDS011;50436;50.618;7.932;2023-12-14T02:13:16;0.20;;;0.20;;
64140;SDS011;50436;50.618;7.932;2023-12-14T02:16:02;0.20;;;0.20;;
64140;SDS011;50436;50.618;7.932;2023-12-14T02:18:49;0.20;;;0.20;;
64140;SDS011;50436;50.618;7.932;2023-12-14T02:21:34;0.20;;;0.20;;
64140;SDS011;50436;50.618;7.932;2023-12-14T02:24:20;0.88;;;0.52;;
64140;SDS011;50436;50.618;7.932;2023-12-14T02:27:06;0.90;;;0.50;;
64140;SDS011;50436;50.618;7.932;2023-12-14T02:29:52;1.13;;;0.60;;
64140;SDS011;50436;50.618;7.932;2023-12-14T02:32:38;1.33;;;0.68;;
64140;SDS011;50436;50.618;7.932;2023-12-14T02:35:24;1.60;;;0.85;;
64140;SDS011;50436;50.618;7.932;2023-12-14T02:38:10;1.17;;;0.80;;
64140;SDS011;50436;50.618;7.932;2023-12-14T02:40:56;1.02;;;0.55;;
64140;SDS011;50436;50.618;7.932;2023-12-14T02:43:42;0.75;;;0.45;;
64140;SDS011;50436;50.618;7.932;2023-12-14T02:46:28;1.48;;;0.90;;
64140;SDS011;50436;50.618;7.932;2023-12-14T02:49:14;1.27;;;0.77;;
64140;SDS011;50436;50.618;7.932;2023-12-14T02:52:00;1.15;;;0.70;;
64140;SDS011;50436;50.618;7.932;2023-12-14T02:54:46;0.65;;;0.40;;
64140;SDS011;50436;50.618;7.932;2023-12-14T02:57:31;0.70;;;0.40;;
64140;SDS011;50436;50.618;7.932;2023-12-14T03:00:17;1.00;;;0.50;;
64140;SDS011;50436;50.618;7.932;2023-12-14T03:03:03;0.75;;;0.47;;
64140;SDS011;50436;50.618;7.932;2023-12-14T03:05:49;0.90;;;0.50;;
64140;SDS011;50436;50.618;7.932;2023-12-14T03:08:35;1.13;;;0.60;;
64140;SDS011;50436;50.618;7.932;2023-12-14T03:11:21;1.30;;;0.80;;
64140;SDS011;50436;50.618;7.932;2023-12-14T03:14:10;0.93;;;0.50;;
64140;SDS011;50436;50.618;7.932;2023-12-14T03:16:56;0.60;;;0.40;;
64140;SDS011;50436;50.618;7.932;2023-12-14T03:19:42;1.52;;;0.80;;
64140;SDS011;50436;50.618;7.932;2023-12-14T03:22:28;0.68;;;0.40;;
64140;SDS011;50436;50.618;7.932;2023-12-14T03:25:14;0.90;;;0.50;;
64140;SDS011;50436;50.618;7.932;2023-12-14T03:28:00;0.90;;;0.50;;
64140;SDS011;50436;50.618;7.932;2023-12-14T03:30:46;0.65;;;0.50;;
64140;SDS011;50436;50.618;7.932;2023-12-14T03:33:32;1.08;;;0.60;;
64140;SDS011;50436;50.618;7.932;2023-12-14T03:36:17;1.33;;;0.70;;
64140;SDS011;50436;50.618;7.932;2023-12-14T03:39:03;1.08;;;0.60;;
64140;SDS011;50436;50.618;7.932;2023-12-14T03:41:50;1.65;;;1.00;;
64140;SDS011;50436;50.618;7.932;2023-12-14T03:44:35;1.05;;;0.60;;
64140;SDS011;50436;50.618;7.932;2023-12-14T03:47:21;0.73;;;0.50;;
64140;SDS011;50436;50.618;7.932;2023-12-14T03:50:07;0.68;;;0.40;;
64140;SDS011;50436;50.618;7.932;2023-12-14T03:52:56;1.30;;;0.82;;
64140;SDS011;50436;50.618;7.932;2023-12-14T03:55:42;1.00;;;0.55;;
64140;SDS011;50436;50.618;7.932;2023-12-14T03:58:28;0.73;;;0.50;;
64140;SDS011;50436;50.618;7.932;2023-12-14T04:01:17;0.98;;;0.50;;
64140;SDS011;50436;50.618;7.932;2023-12-14T04:04:03;1.10;;;0.68;;
64140;SDS011;50436;50.618;7.932;2023-12-14T04:06:49;0.68;;;0.40;;
64140;SDS011;50436;50.618;7.932;2023-12-14T04:09:36;1.20;;;0.68;;
64140;SDS011;50436;50.618;7.932;2023-12-14T04:12:22;1.15;;;0.70;;
64140;SDS011;50436;50.618;7.932;2023-12-14T04:15:09;0.80;;;0.50;;
64140;SDS011;50436;50.618;7.932;2023-12-14T04:17:55;1.05;;;0.60;;
64140;SDS011;50436;50.618;7.932;2023-12-14T04:20:41;1.13;;;0.70;;
64140;SDS011;50436;50.618;7.932;2023-12-14T04:23:27;0.88;;;0.50;;
64140;SDS011;50436;50.618;7.932;2023-12-14T04:26:13;0.90;;;0.57;;
64140;SDS011;50436;50.618;7.932;2023-12-14T04:29:00;0.93;;;0.52;;
64140;SDS011;50436;50.618;7.932;2023-12-14T04:31:45;0.57;;;0.40;;
64140;SDS011;50436;50.618;7.932;2023-12-14T04:34:31;0.75;;;0.45;;
64140;SDS011;50436;50.618;7.932;2023-12-14T04:37:17;0.38;;;0.30;;
64140;SDS011;50436;50.618;7.932;2023-12-14T04:40:03;0.82;;;0.45;;
64140;SDS011;50436;50.618;7.932;2023-12-14T04:42:49;1.15;;;0.65;;
64140;SDS011;50436;50.618;7.932;2023-12-14T04:45:35;0.80;;;0.40;;
64140;SDS011;50436;50.618;7.932;2023-12-14T04:48:21;0.80;;;0.50;;
64140;SDS011;50436;50.618;7.932;2023-12-14T04:51:10;1.00;;;0.50;;
64140;SDS011;50436;50.618;7.932;2023-12-14T04:53:57;0.90;;;0.50;;
64140;SDS011;50436;50.618;7.932;2023-12-14T04:56:45;1.00;;;0.60;;
64140;SDS011;50436;50.618;7.932;2023-12-14T04:59:34;1.38;;;0.70;;
64140;SDS011;50436;50.618;7.932;2023-12-14T05:02:20;1.10;;;0.60;;
64140;SDS011;50436;50.618;7.932;2023-12-14T05:05:06;1.20;;;0.60;;
64140;SDS011;50436;50.618;7.932;2023-12-14T05:07:52;1.20;;;0.70;;
64140;SDS011;50436;50.618;7.932;2023-12-14T05:10:38;1.70;;;1.10;;
64140;SDS011;50436;50.618;7.932;2023-12-14T05:13:24;1.00;;;0.60;;
64140;SDS011;50436;50.618;7.932;2023-12-14T05:16:14;1.02;;;0.60;;
64140;SDS011;50436;50.618;7.932;2023-12-14T05:19:00;1.15;;;0.60;;
64140;SDS011;50436;50.618;7.932;2023-12-14T05:21:46;1.20;;;0.70;;
64140;SDS011;50436;50.618;7.932;2023-12-14T05:24:32;1.15;;;0.73;;
64140;SDS011;50436;50.618;7.932;2023-12-14T05:27:18;1.20;;;0.68;;
64140;SDS011;50436;50.618;7.932;2023-12-14T05:30:04;1.30;;;0.75;;
64140;SDS011;50436;50.618;7.932;2023-12-14T05:32:50;1.00;;;0.65;;
64140;SDS011;50436;50.618;7.932;2023-12-14T05:35:36;0.98;;;0.60;;
64140;SDS011;50436;50.618;7.932;2023-12-14T05:38:22;0.98;;;0.60;;
64140;SDS011;50436;50.618;7.932;2023-12-14T05:41:08;1.35;;;0.82;;
64140;SDS011;50436;50.618;7.932;2023-12-14T05:43:54;1.20;;;0.60;;
64140;SDS011;50436;50.618;7.932;2023-12-14T05:46:39;1.23;;;0.70;;
64140;SDS011;50436;50.618;7.932;2023-12-14T05:49:25;1.33;;;0.80;;
64140;SDS011;50436;50.618;7.932;2023-12-14T05:52:11;1.17;;;0.70;;
64140;SDS011;50436;50.618;7.932;2023-12-14T05:55:04;1.35;;;0.80;;
64140;SDS011;50436;50.618;7.932;2023-12-14T05:57:50;1.55;;;0.85;;
64140;SDS011;50436;50.618;7.932;2023-12-14T06:00:36;1.30;;;0.70;;
64140;SDS011;50436;50.618;7.932;2023-12-14T06:03:22;1.40;;;0.80;;
64140;SDS011;50436;50.618;7.932;2023-12-14T06:06:08;1.40;;;0.85;;
64140;SDS011;50436;50.618;7.932;2023-12-14T06:08:54;1.20;;;0.75;;
64140;SDS011;50436;50.618;7.932;2023-12-14T06:11:40;1.35;;;0.88;;
64140;SDS011;50436;50.618;7.932;2023-12-14T06:14:26;1.40;;;0.80;;
64140;SDS011;50436;50.618;7.932;2023-12-14T06:17:12;1.60;;;0.90;;
64140;SDS011;50436;50.618;7.932;2023-12-14T06:19:57;1.55;;;0.90;;
64140;SDS011;50436;50.618;7.932;2023-12-14T06:22:43;1.63;;;0.98;;
64140;SDS011;50436;50.618;7.932;2023-12-14T06:25:29;1.33;;;0.85;;
64140;SDS011;50436;50.618;7.932;2023-12-14T06:28:15;1.35;;;0.73;;
64140;SDS011;50436;50.618;7.932;2023-12-14T06:31:01;1.30;;;0.80;;
64140;SDS011;50436;50.618;7.932;2023-12-14T06:33:47;1.27;;;0.70;;
64140;SDS011;50436;50.618;7.932;2023-12-14T06:36:36;1.50;;;0.90;;
64140;SDS011;50436;50.618;7.932;2023-12-14T06:42:13;1.27;;;0.80;;
64140;SDS011;50436;50.618;7.932;2023-12-14T06:45:01;1.30;;;0.70;;
64140;SDS011;50436;50.618;7.932;2023-12-14T06:47:48;1.52;;;1.00;;
64140;SDS011;50436;50.618;7.932;2023-12-14T06:50:35;1.25;;;0.70;;
64140;SDS011;50436;50.618;7.932;2023-12-14T06:53:21;0.95;;;0.60;;
64140;SDS011;50436;50.618;7.932;2023-12-14T06:56:07;1.40;;;0.73;;
64140;SDS011;50436;50.618;7.932;2023-12-14T06:58:56;1.58;;;0.90;;
64140;SDS011;50436;50.618;7.932;2023-12-14T07:01:42;1.10;;;0.60;;
64140;SDS011;50436;50.618;7.932;2023-12-14T07:04:28;0.82;;;0.50;;
64140;SDS011;50436;50.618;7.932;2023-12-14T07:07:15;1.17;;;0.60;;
64140;SDS011;50436;50.618;7.932;2023-12-14T07:10:01;1.00;;;0.60;;
64140;SDS011;50436;50.618;7.932;2023-12-14T07:12:48;1.02;;;0.60;;
64140;SDS011;50436;50.618;7.932;2023-12-14T07:15:34;0.90;;;0.50;;
64140;SDS011;50436;50.618;7.932;2023-12-14T07:18:20;0.70;;;0.40;;
64140;SDS011;50436;50.618;7.932;2023-12-14T07:21:06;0.85;;;0.50;;
64140;SDS011;50436;50.618;7.932;2023-12-14T07:23:52;0.40;;;0.30;;
64140;SDS011;50436;50.618;7.932;2023-12-14T07:26:38;0.40;;;0.30;;
64140;SDS011;50436;50.618;7.932;2023-12-14T07:29:24;0.43;;;0.35;;
64140;SDS011;50436;50.618;7.932;2023-12-14T07:32:11;0.30;;;0.22;;
64140;SDS011;50436;50.618;7.932;2023-12-14T07:34:57;0.60;;;0.40;;
64140;SDS011;50436;50.618;7.932;2023-12-14T07:37:43;0.50;;;0.40;;
64140;SDS011;50436;50.618;7.932;2023-12-14T07:40:29;0.70;;;0.43;;
64140;SDS011;50436;50.618;7.932;2023-12-14T07:43:15;0.22;;;0.22;;
64140;SDS011;50436;50.618;7.932;2023-12-14T07:46:01;0.30;;;0.30;;
64140;SDS011;50436;50.618;7.932;2023-12-14T07:48:47;0.80;;;0.43;;
64140;SDS011;50436;50.618;7.932;2023-12-14T07:51:33;0.63;;;0.43;;
64140;SDS011;50436;50.618;7.932;2023-12-14T07:54:21;0.30;;;0.30;;
64140;SDS011;50436;50.618;7.932;2023-12-14T07:57:07;0.88;;;0.50;;
64140;SDS011;50436;50.618;7.932;2023-12-14T07:59:53;0.20;;;0.20;;
64140;SDS011;50436;50.618;7.932;2023-12-14T08:02:39;0.20;;;0.20;;
64140;SDS011;50436;50.618;7.932;2023-12-14T08:05:27;0.38;;;0.30;;
64140;SDS011;50436;50.618;7.932;2023-12-14T08:08:13;0.20;;;0.20;;
64140;SDS011;50436;50.618;7.932;2023-12-14T08:10:59;0.63;;;0.40;;
64140;SDS011;50436;50.618;7.932;2023-12-14T08:13:45;0.20;;;0.20;;
64140;SDS011;50436;50.618;7.932;2023-12-14T08:16:31;0.20;;;0.20;;
64140;SDS011;50436;50.618;7.932;2023-12-14T08:19:17;0.20;;;0.20;;
64140;SDS011;50436;50.618;7.932;2023-12-14T08:22:03;0.20;;;0.20;;
64140;SDS011;50436;50.618;7.932;2023-12-14T08:24:49;0.20;;;0.20;;
64140;SDS011;50436;50.618;7.932;2023-12-14T08:27:35;0.20;;;0.20;;
64140;SDS011;50436;50.618;7.932;2023-12-14T08:30:21;0.20;;;0.20;;
64140;SDS011;50436;50.618;7.932;2023-12-14T08:33:07;0.20;;;0.20;;
64140;SDS011;50436;50.618;7.932;2023-12-14T08:35:53;0.30;;;0.30;;
64140;SDS011;50436;50.618;7.932;2023-12-14T08:38:39;0.30;;;0.30;;
64140;SDS011;50436;50.618;7.932;2023-12-14T08:41:25;0.35;;;0.30;;
64140;SDS011;50436;50.618;7.932;2023-12-14T08:44:11;0.80;;;0.50;;
64140;SDS011;50436;50.618;7.932;2023-12-14T08:46:56;0.73;;;0.50;;
64140;SDS011;50436;50.618;7.932;2023-12-14T08:49:42;0.57;;;0.40;;
64140;SDS011;50436;50.618;7.932;2023-12-14T08:52:28;0.98;;;0.55;;
64140;SDS011;50436;50.618;7.932;2023-12-14T08:55:14;1.05;;;0.57;;
64140;SDS011;50436;50.618;7.932;2023-12-14T08:58:00;1.00;;;0.65;;
64140;SDS011;50436;50.618;7.932;2023-12-14T09:00:46;1.42;;;0.82;;
64140;SDS011;50436;50.618;7.932;2023-12-14T09:03:32;1.10;;;0.60;;
64140;SDS011;50436;50.618;7.932;2023-12-14T09:06:18;1.27;;;0.70;;
64140;SDS011;50436;50.618;7.932;2023-12-14T09:09:04;1.15;;;0.70;;
64140;SDS011;50436;50.618;7.932;2023-12-14T09:11:49;0.82;;;0.60;;
64140;SDS011;50436;50.618;7.932;2023-12-14T09:14:35;1.40;;;0.80;;
64140;SDS011;50436;50.618;7.932;2023-12-14T09:17:21;0.65;;;0.40;;
64140;SDS011;50436;50.618;7.932;2023-12-14T09:20:07;1.38;;;0.77;;
64140;SDS011;50436;50.618;7.932;2023-12-14T09:22:54;1.50;;;0.85;;
64140;SDS011;50436;50.618;7.932;2023-12-14T09:25:40;0.85;;;0.50;;
64140;SDS011;50436;50.618;7.932;2023-12-14T09:28:26;1.73;;;1.15;;
64140;SDS011;50436;50.618;7.932;2023-12-14T09:31:12;1.23;;;0.80;;
64140;SDS011;50436;50.618;7.932;2023-12-14T09:33:58;1.58;;;1.00;;
64140;SDS011;50436;50.618;7.932;2023-12-14T09:36:44;1.77;;;1.20;;
64140;SDS011;50436;50.618;7.932;2023-12-14T09:39:30;1.60;;;0.90;;
64140;SDS011;50436;50.618;7.932;2023-12-14T09:42:20;1.05;;;0.57;;
64140;SDS011;50436;50.618;7.932;2023-12-14T09:45:06;0.45;;;0.32;;
64140;SDS011;50436;50.618;7.932;2023-12-14T09:47:54;0.20;;;0.20;;
64140;SDS011;50436;50.618;7.932;2023-12-14T09:50:40;0.30;;;0.30;;
64140;SDS011;50436;50.618;7.932;2023-12-14T09:53:26;0.30;;;0.30;;
64140;SDS011;50436;50.618;7.932;2023-12-14T09:56:12;0.30;;;0.30;;
64140;SDS011;50436;50.618;7.932;2023-12-14T09:58:58;0.20;;;0.20;;
64140;SDS011;50436;50.618;7.932;2023-12-14T10:01:46;0.20;;;0.20;;
64140;SDS011;50436;50.618;7.932;2023-12-14T10:04:32;0.20;;;0.20;;
64140;SDS011;50436;50.618;7.932;2023-12-14T10:07:19;0.20;;;0.20;;
64140;SDS011;50436;50.618;7.932;2023-12-14T10:10:10;0.20;;;0.20;;
64140;SDS011;50436;50.618;7.932;2023-12-14T10:15:45;0.10;;;0.10;;
64140;SDS011;50436;50.618;7.932;2023-12-14T10:18:32;0.20;;;0.20;;
64140;SDS011;50436;50.618;7.932;2023-12-14T10:21:20;0.20;;;0.20;;
64140;SDS011;50436;50.618;7.932;2023-12-14T10:24:08;0.20;;;0.20;;
64140;SDS011;50436;50.618;7.932;2023-12-14T10:26:54;0.10;;;0.10;;
64140;SDS011;50436;50.618;7.932;2023-12-14T10:29:42;0.20;;;0.20;;
64140;SDS011;50436;50.618;7.932;2023-12-14T10:32:30;0.17;;;0.17;;
64140;SDS011;50436;50.618;7.932;2023-12-14T10:35:16;0.20;;;0.20;;
64140;SDS011;50436;50.618;7.932;2023-12-14T10:38:03;0.20;;;0.20;;
64140;SDS011;50436;50.618;7.932;2023-12-14T10:43:41;0.20;;;0.20;;
64140;SDS011;50436;50.618;7.932;2023-12-14T10:46:30;0.20;;;0.20;;
64140;SDS011;50436;50.618;7.932;2023-12-14T10:49:16;0.20;;;0.20;;
64140;SDS011;50436;50.618;7.932;2023-12-14T10:52:02;0.20;;;0.20;;
64140;SDS011;50436;50.618;7.932;2023-12-14T10:54:52;0.20;;;0.20;;
64140;SDS011;50436;50.618;7.932;2023-12-14T10:57:44;0.17;;;0.17;;
64140;SDS011;50436;50.618;7.932;2023-12-14T11:00:31;0.20;;;0.20;;
64140;SDS011;50436;50.618;7.932;2023-12-14T11:03:17;0.17;;;0.17;;
64140;SDS011;50436;50.618;7.932;2023-12-14T11:06:15;0.20;;;0.20;;
64140;SDS011;50436;50.618;7.932;2023-12-14T11:09:06;0.20;;;0.20;;
64140;SDS011;50436;50.618;7.932;2023-12-14T11:14:39;0.20;;;0.20;;
64140;SDS011;50436;50.618;7.932;2023-12-14T11:17:24;0.20;;;0.20;;
64140;SDS011;50436;50.618;7.932;2023-12-14T11:20:23;0.20;;;0.20;;
64140;SDS011;50436;50.618;7.932;2023-12-14T11:23:10;0.20;;;0.20;;
64140;SDS011;50436;50.618;7.932;2023-12-14T11:26:01;0.20;;;0.20;;
64140;SDS011;50436;50.618;7.932;2023-12-14T11:28:49;0.20;;;0.20;;
64140;SDS011;50436;50.618;7.932;2023-12-14T11:31:35;0.28;;;0.28;;
64140;SDS011;50436;50.618;7.932;2023-12-14T11:34:24;0.30;;;0.30;;
64140;SDS011;50436;50.618;7.932;2023-12-14T11:37:10;0.25;;;0.25;;
64140;SDS011;50436;50.618;7.932;2023-12-14T11:39:56;0.20;;;0.20;;
64140;SDS011;50436;50.618;7.932;2023-12-14T11:42:42;0.20;;;0.20;;
64140;SDS011;50436;50.618;7.932;2023-12-14T11:45:31;0.28;;;0.28;;
64140;SDS011;50436;50.618;7.932;2023-12-14T11:48:17;0.25;;;0.25;;
64140;SDS011;50436;50.618;7.932;2023-12-14T11:51:05;0.20;;;0.20;;
64140;SDS011;50436;50.618;7.932;2023-12-14T11:53:51;0.10;;;0.10;;
64140;SDS011;50436;50.618;7.932;2023-12-14T11:56:37;0.20;;;0.20;;
64140;SDS011;50436;50.618;7.932;2023-12-14T11:59:23;0.20;;;0.20;;
64140;SDS011;50436;50.618;7.932;2023-12-14T12:02:09;0.10;;;0.10;;
64140;SDS011;50436;50.618;7.932;2023-12-14T12:04:55;0.20;;;0.20;;
64140;SDS011;50436;50.618;7.932;2023-12-14T12:07:41;0.10;;;0.10;;
64140;SDS011;50436;50.618;7.932;2023-12-14T12:10:29;0.20;;;0.20;;
64140;SDS011;50436;50.618;7.932;2023-12-14T12:13:16;0.20;;;0.20;;
64140;SDS011;50436;50.618;7.932;2023-12-14T12:16:03;0.20;;;0.20;;
64140;SDS011;50436;50.618;7.932;2023-12-14T12:18:49;0.20;;;0.20;;
64140;SDS011;50436;50.618;7.932;2023-12-14T12:21:36;0.20;;;0.20;;
64140;SDS011;50436;50.618;7.932;2023-12-14T12:24:22;0.15;;;0.15;;
64140;SDS011;50436;50.618;7.932;2023-12-14T12:27:08;0.20;;;0.20;;
64140;SDS011;50436;50.618;7.932;2023-12-14T12:29:54;0.15;;;0.15;;
64140;SDS011;50436;50.618;7.932;2023-12-14T12:32:41;0.10;;;0.10;;
64140;SDS011;50436;50.618;7.932;2023-12-14T12:35:27;0.20;;;0.20;;
64140;SDS011;50436;50.618;7.932;2023-12-14T12:38:16;0.10;;;0.10;;
64140;SDS011;50436;50.618;7.932;2023-12-14T12:41:01;0.10;;;0.10;;
64140;SDS011;50436;50.618;7.932;2023-12-14T12:43:48;0.20;;;0.20;;
64140;SDS011;50436;50.618;7.932;2023-12-14T12:46:34;0.20;;;0.20;;
64140;SDS011;50436;50.618;7.932;2023-12-14T12:49:21;0.20;;;0.20;;
64140;SDS011;50436;50.618;7.932;2023-12-14T12:52:06;0.20;;;0.20;;
64140;SDS011;50436;50.618;7.932;2023-12-14T12:54:52;0.10;;;0.10;;
64140;SDS011;50436;50.618;7.932;2023-12-14T12:57:38;0.28;;;0.28;;
64140;SDS011;50436;50.618;7.932;2023-12-14T13:00:24;0.20;;;0.20;;
64140;SDS011;50436;50.618;7.932;2023-12-14T13:03:10;0.20;;;0.20;;
64140;SDS011;50436;50.618;7.932;2023-12-14T13:05:57;0.20;;;0.20;;
64140;SDS011;50436;50.618;7.932;2023-12-14T13:08:43;0.20;;;0.20;;
64140;SDS011;50436;50.618;7.932;2023-12-14T13:11:29;0.20;;;0.20;;
64140;SDS011;50436;50.618;7.932;2023-12-14T13:14:15;0.20;;;0.20;;
64140;SDS011;50436;50.618;7.932;2023-12-14T13:17:00;0.20;;;0.20;;
64140;SDS011;50436;50.618;7.932;2023-12-14T13:19:46;0.20;;;0.20;;
64140;SDS011;50436;50.618;7.932;2023-12-14T13:22:32;0.20;;;0.20;;
64140;SDS011;50436;50.618;7.932;2023-12-14T13:25:18;0.20;;;0.20;;
64140;SDS011;50436;50.618;7.932;2023-12-14T13:28:05;0.20;;;0.20;;
64140;SDS011;50436;50.618;7.932;2023-12-14T13:30:54;0.17;;;0.17;;
64140;SDS011;50436;50.618;7.932;2023-12-14T13:33:40;0.20;;;0.20;;
64140;SDS011;50436;50.618;7.932;2023-12-14T13:36:26;0.10;;;0.10;;
64140;SDS011;50436;50.618;7.932;2023-12-14T13:39:12;0.20;;;0.20;;
64140;SDS011;50436;50.618;7.932;2023-12-14T13:41:58;0.20;;;0.20;;
64140;SDS011;50436;50.618;7.932;2023-12-14T13:44:44;0.20;;;0.20;;
64140;SDS011;50436;50.618;7.932;2023-12-14T13:47:30;0.20;;;0.20;;
64140;SDS011;50436;50.618;7.932;2023-12-14T13:50:16;0.20;;;0.20;;
64140;SDS011;50436;50.618;7.932;2023-12-14T13:53:02;0.20;;;0.20;;
64140;SDS011;50436;50.618;7.932;2023-12-14T13:55:48;0.20;;;0.20;;
64140;SDS011;50436;50.618;7.932;2023-12-14T13:58:36;0.20;;;0.20;;
64140;SDS011;50436;50.618;7.932;2023-12-14T14:01:23;0.10;;;0.10;;
64140;SDS011;50436;50.618;7.932;2023-12-14T14:04:11;0.20;;;0.20;;
64140;SDS011;50436;50.618;7.932;2023-12-14T14:06:57;0.20;;;0.20;;
64140;SDS011;50436;50.618;7.932;2023-12-14T14:09:42;0.10;;;0.10;;
64140;SDS011;50436;50.618;7.932;2023-12-14T14:12:28;0.20;;;0.20;;
64140;SDS011;50436;50.618;7.932;2023-12-14T14:15:14;0.10;;;0.10;;
64140;SDS011;50436;50.618;7.932;2023-12-14T14:18:00;0.10;;;0.10;;
64140;SDS011;50436;50.618;7.932;2023-12-14T14:20:46;0.10;;;0.10;;
64140;SDS011;50436;50.618;7.932;2023-12-14T14:23:32;0.20;;;0.20;;
64140;SDS011;50436;50.618;7.932;2023-12-14T14:26:18;0.10;;;0.10;;
64140;SDS011;50436;50.618;7.932;2023-12-14T14:29:04;0.20;;;0.20;;
64140;SDS011;50436;50.618;7.932;2023-12-14T14:31:50;0.20;;;0.20;;
64140;SDS011;50436;50.618;7.932;2023-12-14T14:34:36;0.20;;;0.20;;
64140;SDS011;50436;50.618;7.932;2023-12-14T14:37:21;0.10;;;0.10;;
64140;SDS011;50436;50.618;7.932;2023-12-14T14:40:08;0.20;;;0.20;;
64140;SDS011;50436;50.618;7.932;2023-12-14T14:42:54;0.20;;;0.20;;
64140;SDS011;50436;50.618;7.932;2023-12-14T14:45:40;0.20;;;0.20;;
64140;SDS011;50436;50.618;7.932;2023-12-14T14:48:26;0.22;;;0.22;;
64140;SDS011;50436;50.618;7.932;2023-12-14T14:51:12;0.10;;;0.10;;
64140;SDS011;50436;50.618;7.932;2023-12-14T14:53:58;0.20;;;0.20;;
64140;SDS011;50436;50.618;7.932;2023-12-14T14:56:44;0.10;;;0.10;;
64140;SDS011;50436;50.618;7.932;2023-12-14T14:59:30;0.20;;;0.20;;
64140;SDS011;50436;50.618;7.932;2023-12-14T15:02:16;0.20;;;0.20;;
64140;SDS011;50436;50.618;7.932;2023-12-14T15:05:02;0.20;;;0.20;;
64140;SDS011;50436;50.618;7.932;2023-12-14T15:07:47;0.13;;;0.13;;
64140;SDS011;50436;50.618;7.932;2023-12-14T15:10:33;0.10;;;0.10;;
64140;SDS011;50436;50.618;7.932;2023-12-14T15:13:19;0.20;;;0.20;;
64140;SDS011;50436;50.618;7.932;2023-12-14T15:16:05;0.20;;;0.20;;
64140;SDS011;50436;50.618;7.932;2023-12-14T15:18:52;0.20;;;0.20;;
64140;SDS011;50436;50.618;7.932;2023-12-14T15:21:39;0.20;;;0.20;;
64140;SDS011;50436;50.618;7.932;2023-12-14T15:24:24;0.20;;;0.20;;
64140;SDS011;50436;50.618;7.932;2023-12-14T15:27:10;0.20;;;0.20;;
64140;SDS011;50436;50.618;7.932;2023-12-14T15:29:56;0.20;;;0.20;;
64140;SDS011;50436;50.618;7.932;2023-12-14T15:32:42;0.15;;;0.15;;
64140;SDS011;50436;50.618;7.932;2023-12-14T15:35:28;0.20;;;0.20;;
64140;SDS011;50436;50.618;7.932;2023-12-14T15:38:14;0.20;;;0.20;;
64140;SDS011;50436;50.618;7.932;2023-12-14T15:41:00;0.15;;;0.15;;
64140;SDS011;50436;50.618;7.932;2023-12-14T15:43:46;0.20;;;0.20;;
64140;SDS011;50436;50.618;7.932;2023-12-14T15:46:32;0.20;;;0.20;;
64140;SDS011;50436;50.618;7.932;2023-12-14T15:49:18;0.20;;;0.20;;
64140;SDS011;50436;50.618;7.932;2023-12-14T15:52:04;0.10;;;0.10;;
64140;SDS011;50436;50.618;7.932;2023-12-14T15:54:50;0.10;;;0.10;;
64140;SDS011;50436;50.618;7.932;2023-12-14T15:57:35;0.10;;;0.10;;
64140;SDS011;50436;50.618;7.932;2023-12-14T16:00:21;0.20;;;0.20;;
64140;SDS011;50436;50.618;7.932;2023-12-14T16:03:07;0.20;;;0.20;;
64140;SDS011;50436;50.618;7.932;2023-12-14T16:05:56;0.10;;;0.10;;
64140;SDS011;50436;50.618;7.932;2023-12-14T16:08:42;0.20;;;0.20;;
64140;SDS011;50436;50.618;7.932;2023-12-14T16:11:28;0.10;;;0.10;;
64140;SDS011;50436;50.618;7.932;2023-12-14T16:14:14;0.13;;;0.13;;
64140;SDS011;50436;50.618;7.932;2023-12-14T16:16:59;0.20;;;0.20;;
64140;SDS011;50436;50.618;7.932;2023-12-14T16:19:45;0.20;;;0.20;;
64140;SDS011;50436;50.618;7.932;2023-12-14T16:22:31;0.20;;;0.20;;
64140;SDS011;50436;50.618;7.932;2023-12-14T16:25:17;0.20;;;0.20;;
64140;SDS011;50436;50.618;7.932;2023-12-14T16:28:03;0.10;;;0.10;;
64140;SDS011;50436;50.618;7.932;2023-12-14T16:30:49;0.20;;;0.20;;
64140;SDS011;50436;50.618;7.932;2023-12-14T16:33:38;0.20;;;0.20;;
64140;SDS011;50436;50.618;7.932;2023-12-14T16:36:24;0.20;;;0.20;;
64140;SDS011;50436;50.618;7.932;2023-12-14T16:39:10;0.20;;;0.20;;
64140;SDS011;50436;50.618;7.932;2023-12-14T16:41:59;0.20;;;0.20;;
64140;SDS011;50436;50.618;7.932;2023-12-14T16:44:45;0.20;;;0.20;;
64140;SDS011;50436;50.618;7.932;2023-12-14T16:47:31;0.20;;;0.20;;
64140;SDS011;50436;50.618;7.932;2023-12-14T16:50:16;0.20;;;0.20;;
64140;SDS011;50436;50.618;7.932;2023-12-14T16:53:02;0.20;;;0.20;;
64140;SDS011;50436;50.618;7.932;2023-12-14T16:55:49;0.20;;;0.20;;